sensor_id;sensor_type;location;lat;lon;timestamp;P1;durP1;ratioP1;P2;durP2;ratioP2
43877;SDS011;29815;48.184;11.268;2023-02-01T00:02:21;5.55;;;3.25;;
43877;SDS011;29815;48.184;11.268;2023-02-01T00:04:50;6.75;;;3.20;;
43877;SDS011;29815;48.184;11.268;2023-02-01T00:07:20;10.63;;;6.25;;
43877;SDS011;29815;48.184;11.268;2023-02-01T00:09:49;4.55;;;3.10;;
43877;SDS011;29815;48.184;11.268;2023-02-01T00:12:18;4.47;;;3.17;;
43877;SDS011;29815;48.184;11.268;2023-02-01T00:14:49;6.15;;;3.97;;
43877;SDS011;29815;48.184;11.268;2023-02-01T00:17:19;6.70;;;3.58;;
43877;SDS011;29815;48.184;11.268;2023-02-01T00:19:48;8.15;;;4.82;;
43877;SDS011;29815;48.184;11.268;2023-02-01T00:22:18;7.45;;;5.00;;
43877;SDS011;29815;48.184;11.268;2023-02-01T00:24:47;7.65;;;4.68;;
43877;SDS011;29815;48.184;11.268;2023-02-01T00:27:17;7.38;;;4.78;;
43877;SDS011;29815;48.184;11.268;2023-02-01T00:29:49;6.65;;;4.63;;
43877;SDS011;29815;48.184;11.268;2023-02-01T00:32:19;8.45;;;5.63;;
43877;SDS011;29815;48.184;11.268;2023-02-01T00:34:48;8.75;;;5.80;;
43877;SDS011;29815;48.184;11.268;2023-02-01T00:37:18;6.70;;;4.93;;
43877;SDS011;29815;48.184;11.268;2023-02-01T00:39:49;8.55;;;5.25;;
43877;SDS011;29815;48.184;11.268;2023-02-01T00:42:18;8.95;;;4.63;;
43877;SDS011;29815;48.184;11.268;2023-02-01T00:44:47;10.25;;;6.10;;
43877;SDS011;29815;48.184;11.268;2023-02-01T00:47:18;9.05;;;5.07;;
43877;SDS011;29815;48.184;11.268;2023-02-01T00:49:48;8.25;;;6.00;;
43877;SDS011;29815;48.184;11.268;2023-02-01T00:52:17;11.30;;;6.30;;
43877;SDS011;29815;48.184;11.268;2023-02-01T00:54:46;8.43;;;5.32;;
43877;SDS011;29815;48.184;11.268;2023-02-01T00:57:16;6.60;;;5.38;;
43877;SDS011;29815;48.184;11.268;2023-02-01T00:59:45;11.57;;;6.25;;
43877;SDS011;29815;48.184;11.268;2023-02-01T01:02:16;9.02;;;6.53;;
43877;SDS011;29815;48.184;11.268;2023-02-01T01:04:47;9.23;;;5.70;;
43877;SDS011;29815;48.184;11.268;2023-02-01T01:07:16;9.00;;;6.40;;
43877;SDS011;29815;48.184;11.268;2023-02-01T01:09:46;13.57;;;7.15;;
43877;SDS011;29815;48.184;11.268;2023-02-01T01:12:15;11.50;;;7.70;;
43877;SDS011;29815;48.184;11.268;2023-02-01T01:14:47;10.05;;;6.93;;
43877;SDS011;29815;48.184;11.268;2023-02-01T01:17:18;8.77;;;6.07;;
43877;SDS011;29815;48.184;11.268;2023-02-01T01:19:47;8.32;;;6.53;;
43877;SDS011;29815;48.184;11.268;2023-02-01T01:22:16;11.13;;;6.88;;
43877;SDS011;29815;48.184;11.268;2023-02-01T01:24:46;7.93;;;6.18;;
43877;SDS011;29815;48.184;11.268;2023-02-01T01:27:15;11.57;;;6.82;;
43877;SDS011;29815;48.184;11.268;2023-02-01T01:29:50;9.18;;;7.25;;
43877;SDS011;29815;48.184;11.268;2023-02-01T01:32:21;9.40;;;6.45;;
43877;SDS011;29815;48.184;11.268;2023-02-01T01:34:50;11.32;;;6.90;;
43877;SDS011;29815;48.184;11.268;2023-02-01T01:37:20;10.63;;;6.15;;
43877;SDS011;29815;48.184;11.268;2023-02-01T01:39:49;10.35;;;7.00;;
43877;SDS011;29815;48.184;11.268;2023-02-01T01:42:19;9.98;;;6.78;;
43877;SDS011;29815;48.184;11.268;2023-02-01T01:47:50;7.85;;;6.57;;
43877;SDS011;29815;48.184;11.268;2023-02-01T01:50:27;10.10;;;6.55;;
43877;SDS011;29815;48.184;11.268;2023-02-01T01:53:00;11.15;;;6.85;;
43877;SDS011;29815;48.184;11.268;2023-02-01T01:55:37;10.43;;;7.00;;
43877;SDS011;29815;48.184;11.268;2023-02-01T01:58:12;11.27;;;6.40;;
43877;SDS011;29815;48.184;11.268;2023-02-01T02:00:46;8.82;;;6.55;;
43877;SDS011;29815;48.184;11.268;2023-02-01T02:03:19;9.73;;;6.45;;
43877;SDS011;29815;48.184;11.268;2023-02-01T02:05:54;8.18;;;5.88;;
43877;SDS011;29815;48.184;11.268;2023-02-01T02:08:27;9.93;;;6.13;;
43877;SDS011;29815;48.184;11.268;2023-02-01T02:10:57;9.13;;;6.32;;
43877;SDS011;29815;48.184;11.268;2023-02-01T02:13:31;9.95;;;6.22;;
43877;SDS011;29815;48.184;11.268;2023-02-01T02:16:10;9.90;;;5.93;;
43877;SDS011;29815;48.184;11.268;2023-02-01T02:19:20;8.70;;;5.38;;
43877;SDS011;29815;48.184;11.268;2023-02-01T02:29:10;7.95;;;5.35;;
43877;SDS011;29815;48.184;11.268;2023-02-01T02:32:44;7.25;;;5.68;;
43877;SDS011;29815;48.184;11.268;2023-02-01T02:36:06;7.05;;;5.10;;
43877;SDS011;29815;48.184;11.268;2023-02-01T02:38:47;6.95;;;4.70;;
43877;SDS011;29815;48.184;11.268;2023-02-01T02:41:31;8.57;;;5.20;;
43877;SDS011;29815;48.184;11.268;2023-02-01T02:44:30;7.82;;;5.53;;
43877;SDS011;29815;48.184;11.268;2023-02-01T02:47:56;8.57;;;4.80;;
43877;SDS011;29815;48.184;11.268;2023-02-01T02:50:41;5.78;;;4.15;;
43877;SDS011;29815;48.184;11.268;2023-02-01T02:53:48;6.65;;;4.50;;
43877;SDS011;29815;48.184;11.268;2023-02-01T02:56:43;6.40;;;4.25;;
43877;SDS011;29815;48.184;11.268;2023-02-01T02:59:30;7.47;;;4.35;;
43877;SDS011;29815;48.184;11.268;2023-02-01T03:02:18;6.30;;;3.80;;
43877;SDS011;29815;48.184;11.268;2023-02-01T03:05:07;6.80;;;4.47;;
43877;SDS011;29815;48.184;11.268;2023-02-01T03:07:54;7.63;;;5.30;;
43877;SDS011;29815;48.184;11.268;2023-02-01T03:10:34;7.60;;;4.30;;
43877;SDS011;29815;48.184;11.268;2023-02-01T03:13:20;6.35;;;4.78;;
43877;SDS011;29815;48.184;11.268;2023-02-01T03:16:04;7.80;;;4.55;;
43877;SDS011;29815;48.184;11.268;2023-02-01T03:18:46;7.32;;;5.32;;
43877;SDS011;29815;48.184;11.268;2023-02-01T03:21:22;7.50;;;5.22;;
43877;SDS011;29815;48.184;11.268;2023-02-01T03:24:02;6.70;;;5.15;;
43877;SDS011;29815;48.184;11.268;2023-02-01T03:26:40;6.13;;;4.38;;
43877;SDS011;29815;48.184;11.268;2023-02-01T03:29:18;9.27;;;5.10;;
43877;SDS011;29815;48.184;11.268;2023-02-01T03:31:53;6.85;;;4.97;;
43877;SDS011;29815;48.184;11.268;2023-02-01T03:34:23;6.15;;;4.32;;
43877;SDS011;29815;48.184;11.268;2023-02-01T03:36:55;7.25;;;4.50;;
43877;SDS011;29815;48.184;11.268;2023-02-01T03:39:34;10.95;;;7.13;;
43877;SDS011;29815;48.184;11.268;2023-02-01T03:42:14;7.88;;;4.55;;
43877;SDS011;29815;48.184;11.268;2023-02-01T03:44:49;6.05;;;4.97;;
43877;SDS011;29815;48.184;11.268;2023-02-01T03:47:26;7.13;;;5.15;;
43877;SDS011;29815;48.184;11.268;2023-02-01T03:50:02;7.05;;;4.53;;
43877;SDS011;29815;48.184;11.268;2023-02-01T03:52:40;5.95;;;4.07;;
43877;SDS011;29815;48.184;11.268;2023-02-01T03:55:17;5.50;;;4.68;;
43877;SDS011;29815;48.184;11.268;2023-02-01T03:57:51;9.27;;;5.47;;
43877;SDS011;29815;48.184;11.268;2023-02-01T04:00:28;9.88;;;4.30;;
43877;SDS011;29815;48.184;11.268;2023-02-01T04:02:58;5.82;;;3.95;;
43877;SDS011;29815;48.184;11.268;2023-02-01T04:05:28;6.35;;;4.72;;
43877;SDS011;29815;48.184;11.268;2023-02-01T04:08:04;9.60;;;5.00;;
43877;SDS011;29815;48.184;11.268;2023-02-01T04:10:35;7.47;;;4.60;;
43877;SDS011;29815;48.184;11.268;2023-02-01T04:13:04;8.43;;;4.80;;
43877;SDS011;29815;48.184;11.268;2023-02-01T04:15:34;10.88;;;6.55;;
43877;SDS011;29815;48.184;11.268;2023-02-01T04:18:03;7.63;;;4.63;;
43877;SDS011;29815;48.184;11.268;2023-02-01T04:20:33;8.13;;;4.78;;
43877;SDS011;29815;48.184;11.268;2023-02-01T04:23:03;5.22;;;3.78;;
43877;SDS011;29815;48.184;11.268;2023-02-01T04:25:32;5.47;;;4.10;;
43877;SDS011;29815;48.184;11.268;2023-02-01T04:28:03;6.78;;;4.25;;
43877;SDS011;29815;48.184;11.268;2023-02-01T04:30:34;8.82;;;4.20;;
43877;SDS011;29815;48.184;11.268;2023-02-01T04:33:03;6.55;;;4.60;;
43877;SDS011;29815;48.184;11.268;2023-02-01T04:35:33;6.97;;;4.53;;
43877;SDS011;29815;48.184;11.268;2023-02-01T04:38:03;5.63;;;3.83;;
43877;SDS011;29815;48.184;11.268;2023-02-01T04:40:32;6.65;;;4.70;;
43877;SDS011;29815;48.184;11.268;2023-02-01T04:43:04;5.80;;;4.00;;
43877;SDS011;29815;48.184;11.268;2023-02-01T04:45:35;7.30;;;4.40;;
43877;SDS011;29815;48.184;11.268;2023-02-01T04:48:05;8.25;;;4.90;;
43877;SDS011;29815;48.184;11.268;2023-02-01T04:50:34;8.13;;;5.00;;
43877;SDS011;29815;48.184;11.268;2023-02-01T04:53:05;6.18;;;4.72;;
43877;SDS011;29815;48.184;11.268;2023-02-01T04:55:36;6.68;;;4.60;;
43877;SDS011;29815;48.184;11.268;2023-02-01T04:58:05;5.57;;;4.47;;
43877;SDS011;29815;48.184;11.268;2023-02-01T05:00:34;6.20;;;4.97;;
43877;SDS011;29815;48.184;11.268;2023-02-01T05:03:04;8.02;;;4.85;;
43877;SDS011;29815;48.184;11.268;2023-02-01T05:05:34;6.18;;;4.35;;
43877;SDS011;29815;48.184;11.268;2023-02-01T05:08:03;8.15;;;5.43;;
43877;SDS011;29815;48.184;11.268;2023-02-01T05:10:33;6.75;;;4.90;;
43877;SDS011;29815;48.184;11.268;2023-02-01T05:13:03;7.60;;;4.78;;
43877;SDS011;29815;48.184;11.268;2023-02-01T05:15:50;6.20;;;4.70;;
43877;SDS011;29815;48.184;11.268;2023-02-01T05:18:20;6.18;;;4.35;;
43877;SDS011;29815;48.184;11.268;2023-02-01T05:20:50;8.57;;;5.03;;
43877;SDS011;29815;48.184;11.268;2023-02-01T05:23:19;5.65;;;4.65;;
43877;SDS011;29815;48.184;11.268;2023-02-01T05:25:48;9.80;;;5.35;;
43877;SDS011;29815;48.184;11.268;2023-02-01T05:28:19;6.85;;;5.07;;
43877;SDS011;29815;48.184;11.268;2023-02-01T05:30:49;5.53;;;4.47;;
43877;SDS011;29815;48.184;11.268;2023-02-01T05:33:18;7.40;;;4.80;;
43877;SDS011;29815;48.184;11.268;2023-02-01T05:35:48;7.93;;;4.70;;
43877;SDS011;29815;48.184;11.268;2023-02-01T05:38:18;7.65;;;4.82;;
43877;SDS011;29815;48.184;11.268;2023-02-01T05:40:47;7.95;;;5.00;;
43877;SDS011;29815;48.184;11.268;2023-02-01T05:43:17;5.68;;;4.63;;
43877;SDS011;29815;48.184;11.268;2023-02-01T05:45:48;9.13;;;5.38;;
43877;SDS011;29815;48.184;11.268;2023-02-01T05:48:18;5.57;;;4.18;;
43877;SDS011;29815;48.184;11.268;2023-02-01T05:50:47;6.53;;;4.35;;
43877;SDS011;29815;48.184;11.268;2023-02-01T05:53:17;6.43;;;4.90;;
43877;SDS011;29815;48.184;11.268;2023-02-01T05:55:46;7.18;;;5.13;;
43877;SDS011;29815;48.184;11.268;2023-02-01T05:58:16;8.10;;;5.63;;
43877;SDS011;29815;48.184;11.268;2023-02-01T06:00:45;6.97;;;4.88;;
43877;SDS011;29815;48.184;11.268;2023-02-01T06:03:16;6.90;;;5.07;;
43877;SDS011;29815;48.184;11.268;2023-02-01T06:05:46;8.75;;;5.30;;
43877;SDS011;29815;48.184;11.268;2023-02-01T06:08:16;6.57;;;4.93;;
43877;SDS011;29815;48.184;11.268;2023-02-01T06:10:45;9.05;;;5.57;;
43877;SDS011;29815;48.184;11.268;2023-02-01T06:13:15;6.43;;;4.50;;
43877;SDS011;29815;48.184;11.268;2023-02-01T06:15:44;7.40;;;5.10;;
43877;SDS011;29815;48.184;11.268;2023-02-01T06:18:15;6.85;;;5.50;;
43877;SDS011;29815;48.184;11.268;2023-02-01T06:20:51;6.85;;;4.75;;
43877;SDS011;29815;48.184;11.268;2023-02-01T06:23:22;8.25;;;5.45;;
43877;SDS011;29815;48.184;11.268;2023-02-01T06:25:52;8.07;;;5.22;;
43877;SDS011;29815;48.184;11.268;2023-02-01T06:28:26;8.43;;;5.65;;
43877;SDS011;29815;48.184;11.268;2023-02-01T06:30:56;7.05;;;5.38;;
43877;SDS011;29815;48.184;11.268;2023-02-01T06:33:27;8.88;;;5.97;;
43877;SDS011;29815;48.184;11.268;2023-02-01T06:35:57;7.78;;;4.93;;
43877;SDS011;29815;48.184;11.268;2023-02-01T06:38:29;10.65;;;5.40;;
43877;SDS011;29815;48.184;11.268;2023-02-01T06:41:02;7.88;;;3.88;;
43877;SDS011;29815;48.184;11.268;2023-02-01T06:43:32;8.43;;;5.20;;
43877;SDS011;29815;48.184;11.268;2023-02-01T06:46:03;6.97;;;4.65;;
43877;SDS011;29815;48.184;11.268;2023-02-01T06:48:36;6.32;;;4.80;;
43877;SDS011;29815;48.184;11.268;2023-02-01T06:51:12;6.22;;;4.82;;
43877;SDS011;29815;48.184;11.268;2023-02-01T06:53:51;5.70;;;4.10;;
43877;SDS011;29815;48.184;11.268;2023-02-01T06:56:21;8.80;;;5.05;;
43877;SDS011;29815;48.184;11.268;2023-02-01T06:58:51;4.97;;;3.88;;
43877;SDS011;29815;48.184;11.268;2023-02-01T07:01:20;6.25;;;4.10;;
43877;SDS011;29815;48.184;11.268;2023-02-01T07:03:51;6.63;;;4.38;;
43877;SDS011;29815;48.184;11.268;2023-02-01T07:06:21;6.00;;;3.92;;
43877;SDS011;29815;48.184;11.268;2023-02-01T07:08:50;6.07;;;4.10;;
43877;SDS011;29815;48.184;11.268;2023-02-01T07:11:23;5.40;;;4.13;;
43877;SDS011;29815;48.184;11.268;2023-02-01T07:13:54;5.55;;;3.17;;
43877;SDS011;29815;48.184;11.268;2023-02-01T07:16:24;5.57;;;3.92;;
43877;SDS011;29815;48.184;11.268;2023-02-01T07:18:55;5.65;;;4.13;;
43877;SDS011;29815;48.184;11.268;2023-02-01T07:21:27;3.67;;;2.80;;
43877;SDS011;29815;48.184;11.268;2023-02-01T07:23:58;5.13;;;2.97;;
43877;SDS011;29815;48.184;11.268;2023-02-01T07:26:28;6.35;;;3.95;;
43877;SDS011;29815;48.184;11.268;2023-02-01T07:28:57;6.75;;;3.63;;
43877;SDS011;29815;48.184;11.268;2023-02-01T07:31:27;4.95;;;3.47;;
43877;SDS011;29815;48.184;11.268;2023-02-01T07:33:58;5.00;;;3.40;;
43877;SDS011;29815;48.184;11.268;2023-02-01T07:36:29;6.50;;;3.55;;
43877;SDS011;29815;48.184;11.268;2023-02-01T07:39:00;5.13;;;3.55;;
43877;SDS011;29815;48.184;11.268;2023-02-01T07:41:30;4.68;;;3.28;;
43877;SDS011;29815;48.184;11.268;2023-02-01T07:44:00;5.28;;;3.75;;
43877;SDS011;29815;48.184;11.268;2023-02-01T07:46:29;4.18;;;3.13;;
43877;SDS011;29815;48.184;11.268;2023-02-01T07:49:00;4.70;;;3.58;;
43877;SDS011;29815;48.184;11.268;2023-02-01T07:51:30;3.65;;;2.75;;
43877;SDS011;29815;48.184;11.268;2023-02-01T07:54:00;4.45;;;3.05;;
43877;SDS011;29815;48.184;11.268;2023-02-01T07:56:29;5.32;;;3.63;;
43877;SDS011;29815;48.184;11.268;2023-02-01T07:58:59;5.25;;;3.22;;
43877;SDS011;29815;48.184;11.268;2023-02-01T08:01:29;5.93;;;2.90;;
43877;SDS011;29815;48.184;11.268;2023-02-01T08:03:58;4.18;;;2.92;;
43877;SDS011;29815;48.184;11.268;2023-02-01T08:06:32;5.05;;;3.45;;
43877;SDS011;29815;48.184;11.268;2023-02-01T08:09:02;4.25;;;3.03;;
43877;SDS011;29815;48.184;11.268;2023-02-01T08:11:32;5.38;;;2.92;;
43877;SDS011;29815;48.184;11.268;2023-02-01T08:14:04;6.45;;;4.32;;
43877;SDS011;29815;48.184;11.268;2023-02-01T08:16:34;6.97;;;2.97;;
43877;SDS011;29815;48.184;11.268;2023-02-01T08:19:06;5.20;;;3.45;;
43877;SDS011;29815;48.184;11.268;2023-02-01T08:21:36;6.53;;;3.33;;
43877;SDS011;29815;48.184;11.268;2023-02-01T08:24:05;5.13;;;2.70;;
43877;SDS011;29815;48.184;11.268;2023-02-01T08:26:37;4.63;;;3.10;;
43877;SDS011;29815;48.184;11.268;2023-02-01T08:29:07;5.07;;;3.70;;
43877;SDS011;29815;48.184;11.268;2023-02-01T08:31:39;6.27;;;3.30;;
43877;SDS011;29815;48.184;11.268;2023-02-01T08:34:12;8.23;;;3.70;;
43877;SDS011;29815;48.184;11.268;2023-02-01T08:36:41;4.85;;;3.28;;
43877;SDS011;29815;48.184;11.268;2023-02-01T08:39:11;8.95;;;3.30;;
43877;SDS011;29815;48.184;11.268;2023-02-01T08:41:41;7.43;;;3.38;;
43877;SDS011;29815;48.184;11.268;2023-02-01T08:44:30;5.57;;;3.47;;
43877;SDS011;29815;48.184;11.268;2023-02-01T08:47:00;5.20;;;3.42;;
43877;SDS011;29815;48.184;11.268;2023-02-01T08:49:32;5.55;;;3.45;;
43877;SDS011;29815;48.184;11.268;2023-02-01T08:52:02;4.65;;;3.10;;
43877;SDS011;29815;48.184;11.268;2023-02-01T08:54:41;4.43;;;3.40;;
43877;SDS011;29815;48.184;11.268;2023-02-01T08:57:11;5.05;;;3.70;;
43877;SDS011;29815;48.184;11.268;2023-02-01T08:59:40;7.18;;;3.88;;
43877;SDS011;29815;48.184;11.268;2023-02-01T09:02:11;5.70;;;5.03;;
43877;SDS011;29815;48.184;11.268;2023-02-01T09:04:43;6.35;;;3.33;;
43877;SDS011;29815;48.184;11.268;2023-02-01T09:07:12;6.68;;;3.67;;
43877;SDS011;29815;48.184;11.268;2023-02-01T09:09:44;6.68;;;3.40;;
43877;SDS011;29815;48.184;11.268;2023-02-01T09:12:13;5.38;;;2.92;;
43877;SDS011;29815;48.184;11.268;2023-02-01T09:14:43;8.63;;;4.18;;
43877;SDS011;29815;48.184;11.268;2023-02-01T09:17:13;5.65;;;3.47;;
43877;SDS011;29815;48.184;11.268;2023-02-01T09:19:44;6.47;;;3.92;;
43877;SDS011;29815;48.184;11.268;2023-02-01T09:22:14;7.07;;;3.35;;
43877;SDS011;29815;48.184;11.268;2023-02-01T09:24:43;4.00;;;2.90;;
43877;SDS011;29815;48.184;11.268;2023-02-01T09:27:13;5.18;;;3.72;;
43877;SDS011;29815;48.184;11.268;2023-02-01T09:29:43;6.80;;;3.85;;
43877;SDS011;29815;48.184;11.268;2023-02-01T09:32:12;4.80;;;3.13;;
43877;SDS011;29815;48.184;11.268;2023-02-01T09:34:42;4.95;;;2.88;;
43877;SDS011;29815;48.184;11.268;2023-02-01T09:37:13;4.00;;;2.72;;
43877;SDS011;29815;48.184;11.268;2023-02-01T09:39:43;5.60;;;3.47;;
43877;SDS011;29815;48.184;11.268;2023-02-01T09:42:16;4.32;;;3.10;;
43877;SDS011;29815;48.184;11.268;2023-02-01T09:45:09;8.18;;;3.35;;
43877;SDS011;29815;48.184;11.268;2023-02-01T09:47:51;4.82;;;3.17;;
43877;SDS011;29815;48.184;11.268;2023-02-01T09:50:32;5.53;;;3.13;;
43877;SDS011;29815;48.184;11.268;2023-02-01T09:53:06;4.90;;;3.00;;
43877;SDS011;29815;48.184;11.268;2023-02-01T09:55:46;3.75;;;2.80;;
43877;SDS011;29815;48.184;11.268;2023-02-01T09:58:19;4.45;;;3.30;;
43877;SDS011;29815;48.184;11.268;2023-02-01T10:00:57;6.50;;;4.20;;
43877;SDS011;29815;48.184;11.268;2023-02-01T10:03:31;5.47;;;3.85;;
43877;SDS011;29815;48.184;11.268;2023-02-01T10:06:18;4.78;;;3.17;;
43877;SDS011;29815;48.184;11.268;2023-02-01T10:09:08;5.70;;;3.65;;
43877;SDS011;29815;48.184;11.268;2023-02-01T10:11:54;4.72;;;2.75;;
43877;SDS011;29815;48.184;11.268;2023-02-01T10:15:24;5.15;;;3.17;;
43877;SDS011;29815;48.184;11.268;2023-02-01T10:18:18;6.45;;;3.20;;
43877;SDS011;29815;48.184;11.268;2023-02-01T10:21:11;4.55;;;2.78;;
43877;SDS011;29815;48.184;11.268;2023-02-01T10:24:10;6.40;;;3.20;;
43877;SDS011;29815;48.184;11.268;2023-02-01T10:27:13;3.53;;;2.63;;
43877;SDS011;29815;48.184;11.268;2023-02-01T10:29:50;4.25;;;2.78;;
43877;SDS011;29815;48.184;11.268;2023-02-01T10:32:28;3.53;;;2.42;;
43877;SDS011;29815;48.184;11.268;2023-02-01T10:35:04;4.97;;;2.88;;
43877;SDS011;29815;48.184;11.268;2023-02-01T10:37:44;5.43;;;3.28;;
43877;SDS011;29815;48.184;11.268;2023-02-01T10:40:16;4.70;;;3.38;;
43877;SDS011;29815;48.184;11.268;2023-02-01T10:42:50;5.20;;;3.28;;
43877;SDS011;29815;48.184;11.268;2023-02-01T10:45:26;5.28;;;3.83;;
43877;SDS011;29815;48.184;11.268;2023-02-01T10:47:59;5.30;;;3.53;;
43877;SDS011;29815;48.184;11.268;2023-02-01T10:50:33;6.95;;;4.07;;
43877;SDS011;29815;48.184;11.268;2023-02-01T10:53:11;6.13;;;3.33;;
43877;SDS011;29815;48.184;11.268;2023-02-01T10:55:48;6.00;;;3.55;;
43877;SDS011;29815;48.184;11.268;2023-02-01T10:58:19;5.40;;;3.47;;
43877;SDS011;29815;48.184;11.268;2023-02-01T11:00:56;9.70;;;4.05;;
43877;SDS011;29815;48.184;11.268;2023-02-01T11:03:34;5.20;;;3.38;;
43877;SDS011;29815;48.184;11.268;2023-02-01T11:09:01;9.13;;;4.10;;
43877;SDS011;29815;48.184;11.268;2023-02-01T11:11:55;7.55;;;4.25;;
43877;SDS011;29815;48.184;11.268;2023-02-01T11:14:32;6.72;;;4.10;;
43877;SDS011;29815;48.184;11.268;2023-02-01T11:17:16;22.25;;;5.88;;
43877;SDS011;29815;48.184;11.268;2023-02-01T11:19:59;7.28;;;4.00;;
43877;SDS011;29815;48.184;11.268;2023-02-01T11:22:31;6.68;;;3.25;;
43877;SDS011;29815;48.184;11.268;2023-02-01T11:25:02;5.55;;;4.30;;
43877;SDS011;29815;48.184;11.268;2023-02-01T11:27:39;5.65;;;3.47;;
43877;SDS011;29815;48.184;11.268;2023-02-01T11:30:22;7.55;;;4.13;;
43877;SDS011;29815;48.184;11.268;2023-02-01T11:33:03;8.57;;;3.38;;
43877;SDS011;29815;48.184;11.268;2023-02-01T11:35:33;5.68;;;4.22;;
43877;SDS011;29815;48.184;11.268;2023-02-01T11:38:11;6.05;;;3.95;;
43877;SDS011;29815;48.184;11.268;2023-02-01T11:40:51;7.43;;;4.87;;
43877;SDS011;29815;48.184;11.268;2023-02-01T11:43:23;8.70;;;4.78;;
43877;SDS011;29815;48.184;11.268;2023-02-01T11:45:56;7.30;;;4.20;;
43877;SDS011;29815;48.184;11.268;2023-02-01T11:48:29;8.17;;;5.23;;
43877;SDS011;29815;48.184;11.268;2023-02-01T11:51:16;5.88;;;4.68;;
43877;SDS011;29815;48.184;11.268;2023-02-01T11:54:18;8.50;;;3.88;;
43877;SDS011;29815;48.184;11.268;2023-02-01T11:57:22;6.03;;;4.75;;
43877;SDS011;29815;48.184;11.268;2023-02-01T12:00:20;6.30;;;4.03;;
43877;SDS011;29815;48.184;11.268;2023-02-01T12:03:26;5.78;;;3.83;;
43877;SDS011;29815;48.184;11.268;2023-02-01T12:06:48;7.20;;;4.07;;
43877;SDS011;29815;48.184;11.268;2023-02-01T12:12:42;8.20;;;4.28;;
43877;SDS011;29815;48.184;11.268;2023-02-01T12:15:27;6.55;;;4.10;;
43877;SDS011;29815;48.184;11.268;2023-02-01T12:24:48;8.55;;;3.85;;
43877;SDS011;29815;48.184;11.268;2023-02-01T12:27:56;6.07;;;3.38;;
43877;SDS011;29815;48.184;11.268;2023-02-01T12:31:04;7.15;;;4.60;;
43877;SDS011;29815;48.184;11.268;2023-02-01T12:34:07;7.40;;;4.38;;
43877;SDS011;29815;48.184;11.268;2023-02-01T12:37:06;6.53;;;3.75;;
43877;SDS011;29815;48.184;11.268;2023-02-01T12:39:58;8.00;;;3.50;;
43877;SDS011;29815;48.184;11.268;2023-02-01T12:42:43;6.43;;;3.40;;
43877;SDS011;29815;48.184;11.268;2023-02-01T12:45:26;9.75;;;4.05;;
43877;SDS011;29815;48.184;11.268;2023-02-01T12:48:09;6.10;;;4.10;;
43877;SDS011;29815;48.184;11.268;2023-02-01T12:50:56;7.10;;;3.78;;
43877;SDS011;29815;48.184;11.268;2023-02-01T12:53:32;5.43;;;3.88;;
43877;SDS011;29815;48.184;11.268;2023-02-01T12:56:15;7.88;;;4.13;;
43877;SDS011;29815;48.184;11.268;2023-02-01T12:58:54;5.28;;;3.25;;
43877;SDS011;29815;48.184;11.268;2023-02-01T13:01:32;6.82;;;4.20;;
43877;SDS011;29815;48.184;11.268;2023-02-01T13:04:09;6.28;;;3.63;;
43877;SDS011;29815;48.184;11.268;2023-02-01T13:06:46;9.90;;;3.85;;
43877;SDS011;29815;48.184;11.268;2023-02-01T13:09:21;7.82;;;4.15;;
43877;SDS011;29815;48.184;11.268;2023-02-01T13:14:54;5.90;;;4.13;;
43877;SDS011;29815;48.184;11.268;2023-02-01T13:17:31;5.28;;;3.63;;
43877;SDS011;29815;48.184;11.268;2023-02-01T13:20:05;7.35;;;3.47;;
43877;SDS011;29815;48.184;11.268;2023-02-01T13:25:23;5.70;;;3.58;;
43877;SDS011;29815;48.184;11.268;2023-02-01T13:28:04;8.85;;;4.35;;
43877;SDS011;29815;48.184;11.268;2023-02-01T13:30:46;4.68;;;2.90;;
43877;SDS011;29815;48.184;11.268;2023-02-01T13:33:59;5.97;;;3.20;;
43877;SDS011;29815;48.184;11.268;2023-02-01T13:37:25;4.78;;;3.05;;
43877;SDS011;29815;48.184;11.268;2023-02-01T13:40:23;7.05;;;4.47;;
43877;SDS011;29815;48.184;11.268;2023-02-01T13:43:11;4.20;;;3.15;;
43877;SDS011;29815;48.184;11.268;2023-02-01T13:45:48;5.18;;;3.97;;
43877;SDS011;29815;48.184;11.268;2023-02-01T13:48:22;5.50;;;3.30;;
43877;SDS011;29815;48.184;11.268;2023-02-01T13:51:00;7.47;;;3.53;;
43877;SDS011;29815;48.184;11.268;2023-02-01T13:53:31;7.80;;;4.05;;
43877;SDS011;29815;48.184;11.268;2023-02-01T13:56:06;6.13;;;3.90;;
43877;SDS011;29815;48.184;11.268;2023-02-01T13:58:43;4.13;;;2.95;;
43877;SDS011;29815;48.184;11.268;2023-02-01T14:04:05;4.80;;;2.90;;
43877;SDS011;29815;48.184;11.268;2023-02-01T14:07:18;9.98;;;4.38;;
43877;SDS011;29815;48.184;11.268;2023-02-01T14:09:50;4.88;;;3.60;;
43877;SDS011;29815;48.184;11.268;2023-02-01T14:12:43;7.47;;;3.80;;
43877;SDS011;29815;48.184;11.268;2023-02-01T14:15:21;10.65;;;3.10;;
43877;SDS011;29815;48.184;11.268;2023-02-01T14:17:55;6.57;;;3.35;;
43877;SDS011;29815;48.184;11.268;2023-02-01T14:23:22;4.38;;;2.75;;
43877;SDS011;29815;48.184;11.268;2023-02-01T14:26:02;5.32;;;4.00;;
43877;SDS011;29815;48.184;11.268;2023-02-01T14:28:53;5.65;;;2.97;;
43877;SDS011;29815;48.184;11.268;2023-02-01T14:31:33;3.83;;;2.65;;
43877;SDS011;29815;48.184;11.268;2023-02-01T14:34:18;5.30;;;2.80;;
43877;SDS011;29815;48.184;11.268;2023-02-01T14:36:56;4.95;;;2.53;;
43877;SDS011;29815;48.184;11.268;2023-02-01T14:39:32;6.38;;;2.90;;
43877;SDS011;29815;48.184;11.268;2023-02-01T14:42:20;4.90;;;4.40;;
43877;SDS011;29815;48.184;11.268;2023-02-01T14:44:55;5.97;;;3.40;;
43877;SDS011;29815;48.184;11.268;2023-02-01T14:51:16;4.20;;;2.53;;
43877;SDS011;29815;48.184;11.268;2023-02-01T14:53:47;9.20;;;2.97;;
43877;SDS011;29815;48.184;11.268;2023-02-01T14:56:20;5.50;;;2.80;;
43877;SDS011;29815;48.184;11.268;2023-02-01T14:58:52;7.45;;;3.17;;
43877;SDS011;29815;48.184;11.268;2023-02-01T15:01:27;8.65;;;2.78;;
43877;SDS011;29815;48.184;11.268;2023-02-01T15:04:01;5.53;;;3.78;;
43877;SDS011;29815;48.184;11.268;2023-02-01T15:06:37;8.35;;;5.15;;
43877;SDS011;29815;48.184;11.268;2023-02-01T15:09:10;11.52;;;2.30;;
43877;SDS011;29815;48.184;11.268;2023-02-01T15:11:56;5.32;;;3.47;;
43877;SDS011;29815;48.184;11.268;2023-02-01T15:14:31;5.05;;;2.83;;
43877;SDS011;29815;48.184;11.268;2023-02-01T15:17:16;5.38;;;2.60;;
43877;SDS011;29815;48.184;11.268;2023-02-01T15:19:52;6.45;;;4.47;;
43877;SDS011;29815;48.184;11.268;2023-02-01T15:22:23;5.72;;;3.78;;
43877;SDS011;29815;48.184;11.268;2023-02-01T15:24:54;5.07;;;2.97;;
43877;SDS011;29815;48.184;11.268;2023-02-01T15:27:29;6.00;;;2.50;;
43877;SDS011;29815;48.184;11.268;2023-02-01T15:30:06;6.38;;;2.60;;
43877;SDS011;29815;48.184;11.268;2023-02-01T15:32:44;5.35;;;2.53;;
43877;SDS011;29815;48.184;11.268;2023-02-01T15:35:33;3.85;;;2.00;;
43877;SDS011;29815;48.184;11.268;2023-02-01T15:38:21;3.65;;;2.20;;
43877;SDS011;29815;48.184;11.268;2023-02-01T15:41:11;7.35;;;2.42;;
43877;SDS011;29815;48.184;11.268;2023-02-01T15:43:46;5.90;;;2.28;;
43877;SDS011;29815;48.184;11.268;2023-02-01T15:46:46;3.40;;;2.08;;
43877;SDS011;29815;48.184;11.268;2023-02-01T15:49:20;5.22;;;1.85;;
43877;SDS011;29815;48.184;11.268;2023-02-01T15:51:56;6.97;;;2.33;;
43877;SDS011;29815;48.184;11.268;2023-02-01T15:54:31;4.03;;;2.25;;
43877;SDS011;29815;48.184;11.268;2023-02-01T15:57:11;7.55;;;2.83;;
43877;SDS011;29815;48.184;11.268;2023-02-01T15:59:50;10.52;;;3.95;;
43877;SDS011;29815;48.184;11.268;2023-02-01T16:02:25;5.28;;;2.03;;
43877;SDS011;29815;48.184;11.268;2023-02-01T16:04:59;5.10;;;2.45;;
43877;SDS011;29815;48.184;11.268;2023-02-01T16:07:32;7.82;;;3.42;;